ADDS METAR Data INFO
IDs: Format: Raw Decoded Include TAF

Data at: 0718 UTC 19 Oct 2017

PASH 190656Z AUTO 36012KT 9SM BKN040 BKN050 01/M04 A2959 RMK AO2 PK WND 33026/0602 RAB06E54UPB33E42 SLP021 P0000 T00061039 FZRANO
PASH 190556Z AUTO 35017KT 10SM FEW017 BKN037 OVC050 01/M05 A2959 RMK AO2 UPB06E41RAB41E44SNB13E26 SLP023 P0000 60000 T00061050 10006 21006 58006 FZRANO
PASH 190510Z AUTO 32013KT 7SM UP FEW017 SCT031 BKN046 00/M03 A2960 RMK AO2 UPB06 P0000 FZRANO
PASH 190456Z AUTO 34014KT 10SM FEW011 BKN019 OVC039 00/M04 A2960 RMK AO2 UPE40 SLP026 P0000 T00001039 FZRANO
PASH 190437Z AUTO 34012KT 10SM UP BKN020 BKN025 OVC075 00/M03 A2961 RMK AO2 P0000 FZRANO
PASH 190356Z AUTO 31014KT 7SM UP SCT026 BKN037 OVC075 M01/M03 A2961 RMK AO2 UPB45 SLP028 P0000 T10061028 FZRANO
PASH 190256Z AUTO 32005KT 9SM SCT035 00/M07 A2961 RMK AO2 SLP029 T00001067 56004 FZRANO
PASH 190156Z AUTO 35006KT 9SM SCT050 BKN080 00/M07 A2961 RMK AO2 SLP029 T00001072 FZRANO
PASH 190056Z AUTO 34006KT 9SM FEW038 01/M07 A2962 RMK AO2 SLP031 T00061072 FZRANO
PASH 182356Z AUTO 02010KT 10SM SCT036 BKN080 01/M07 A2962 RMK AO2 SLP033 60000 T00061072 10017 20000 51003 FZRANO
PASH 182256Z AUTO 01011KT 8SM FEW032 01/M06 A2962 RMK AO2 SLP032 T00111061 FZRANO
PASH 182156Z AUTO 01014KT 7SM FEW048 BKN065 01/M05 A2962 RMK AO2 RAE04 SLP032 P0000 T00061050 FZRANO
PASH 182056Z AUTO 01015KT 7SM -RA FEW029 BKN036 BKN050 01/M06 A2962 RMK AO2 RAB52 SLP030 P0000 60000 T00061056 53007 FZRANO
PASH 181956Z AUTO 02015KT 10SM FEW033 OVC050 01/M04 A2961 RMK AO2 SLP027 T00111044 FZRANO
PASH 181856Z AUTO 01015KT 10SM FEW024 OVC039 01/M04 A2960 RMK AO2 RAB04E36 SLP025 P0000 T00061044 FZRANO
PASH 181828Z AUTO 36012KT 10SM -RA SCT024 OVC031 01/M04 A2960 RMK AO2 RAB04 P0000 FZRANO
PASH 181820Z AUTO 36011G20KT 10SM -RA FEW024 BKN029 OVC041 01/M04 A2960 RMK AO2 RAB04 P0000 FZRANO
PASH 181756Z AUTO 01014KT 10SM OVC041 01/M04 A2959 RMK AO2 SLP022 60000 T00061044 10017 20000 53002 FZRANO
PASH 181656Z AUTO 35013KT 10SM SCT032 OVC050 01/M04 A2959 RMK AO2 SLP021 T00111039 FZRANO
PASH 181556Z AUTO 02015KT 10SM SCT030 BKN041 BKN048 01/M03 A2959 RMK AO2 UPE20 SLP022 P0000 T00061033 FZRANO
PASH 181542Z AUTO 03015KT 10SM FEW011 BKN030 OVC041 00/M03 A2959 RMK AO2 UPE20 P0000 FZRANO
PASH 181520Z AUTO 01015KT 10SM SCT011 BKN018 OVC033 01/M01 A2959 RMK AO2 UPE20 P0000 FZRANO
PASH 181507Z AUTO 34010KT 10SM BKN011 BKN020 BKN046 01/M01 A2959 RMK AO2 UPE05 P0000 FZRANO
PASH 181456Z AUTO 34011KT 10SM UP SCT011 BKN046 01/M01 A2959 RMK AO2 UPE00B46SNB00E13 SLP021 P0000 60000 T00061011 56002 FZRANO
PASH 181454Z AUTO 34011KT 10SM UP SCT011 BKN021 00/M01 A2959 RMK AO2 UPE00B46SNB00E13 P0000 FZRANO
PASH 181438Z AUTO 36012KT 10SM FEW009 SCT014 SCT021 00/M01 A2959 RMK AO2 UPE00SNB00E13 P0000 FZRANO
PASH 181420Z AUTO 36014KT 10SM FEW005 BKN010 OVC016 00/M02 A2959 RMK AO2 UPE00SNB00E13 P0000 FZRANO
PASH 181356Z AUTO 35013KT 6SM UP BR FEW005 SCT018 BKN023 00/M01 A2959 RMK AO2 PK WND 34027/1331 RAB31E40UPB52SNB40E52 SLP021 P0000 T00001011 FZRANO
PASH 181319Z AUTO 33016KT 10SM FEW024 BKN031 OVC044 01/M02 A2959 RMK AO2 FZRANO
PASH 181311Z AUTO 34019KT 10SM BKN028 BKN033 OVC090 01/M01 A2959 RMK AO2 FZRANO
PASH 181256Z AUTO 36013KT 10SM SCT036 BKN090 02/M02 A2959 RMK AO2 SLP023 T00171017 FZRANO
PASH 181209Z AUTO 34012KT 10SM SCT015 SCT027 02/M02 A2960 RMK AO2 FZRANO
PASH 181156Z AUTO 34010KT 10SM BKN013 OVC018 02/M03 A2960 RMK AO2 PK WND 34026/1111 RAB12E34 SLP023 P0000 60000 T00171028 10022 20006 51002 FZRANO
PASH 181141Z AUTO 34012KT 10SM SCT012 BKN020 01/M03 A2960 RMK AO2 PK WND 34026/1111 RAB12E34 P0000 FZRANO
PASH 181056Z AUTO 34016KT 10SM FEW023 BKN030 BKN035 02/M03 A2960 RMK AO2 SLP023 T00171028 FZRANO
PASH 181017Z AUTO 36014KT 10SM BKN025 02/M02 A2960 RMK AO2 FZRANO
PASH 180956Z AUTO 36014KT 10SM FEW025 02/M02 A2959 RMK AO2 RAB14E22UPB22E34 SLP022 P0000 T00221022 FZRANO
PASH 180943Z AUTO 34011KT 10SM FEW014 SCT022 02/M01 A2959 RMK AO2 RAB14E22UPB22E34 P0000 FZRANO
PASH 180929Z AUTO 34013KT 10SM UP FEW014 BKN022 BKN031 01/M02 A2959 RMK AO2 RAB14E22UPB22 P0000 FZRANO
PASH 180856Z AUTO 34018KT 10SM FEW041 02/M01 A2959 RMK AO2 SLP021 T00171006 400220006 53004 FZRANO
PASH 180756Z AUTO 34016KT 10SM FEW023 02/M03 A2958 RMK AO2 SLP019 T00221028 FZRANO
PASH 180718Z AUTO 35015KT 10SM FEW021 SCT028 02/M02 A2958 RMK AO2 FZRANO
PASH 180703Z AUTO 35016KT 10SM SCT021 BKN028 OVC035 02/M02 A2958 RMK AO2 FZRANO
PASH 180656Z AUTO 35016KT 10SM SCT021 SCT026 OVC033 02/M02 A2958 RMK AO2 SLP017 T00171022 FZRANO
PASH 180647Z AUTO 35016KT 10SM FEW019 BKN026 BKN033 02/M02 A2958 RMK AO2 FZRANO
PASH 180556Z AUTO 32015KT 10SM FEW020 02/M01 A2958 RMK AO2 RAB40E56 SLP018 P0000 60000 T00171011 10017 20006 55001 FZRANO
PASH 180548Z AUTO 34013KT 10SM -RA SCT023 01/M02 A2958 RMK AO2 RAB40 P0000 FZRANO
PASH 180539Z AUTO 34019KT 10SM BKN023 02/M02 A2958 RMK AO2 FZRANO
PASH 180456Z AUTO 33017KT 10SM FEW027 SCT036 02/M02 A2958 RMK AO2 UPB34E45 SLP018 P0000 T00171022 FZRANO
PASH 180435Z AUTO 31012G21KT 9SM UP BKN027 BKN033 01/M01 A2958 RMK AO2 UPB34 P0000 FZRANO
PASH 180356Z AUTO 34013KT 10SM FEW027 02/M03 A2958 RMK AO2 SLP018 T00171028 FZRANO
PASH 180304Z AUTO 35012KT 10SM SCT027 01/M03 A2958 RMK AO2 FZRANO
PASH 180256Z AUTO 36013KT 10SM BKN027 01/M03 A2958 RMK AO2 SLP019 60000 T00111028 53003 FZRANO
PASH 180253Z AUTO 36012KT 10SM BKN027 01/M03 A2958 RMK AO2 FZRANO
PASH 180156Z AUTO 35013KT 10SM SCT028 OVC041 01/M03 A2957 RMK AO2 SLP015 T00111028 FZRANO
PASH 180056Z AUTO 01011KT 10SM SCT020 BKN031 BKN050 01/M02 A2957 RMK AO2 RAE09 SLP015 P0000 T00111022 FZRANO
PASH 180032Z AUTO 02014KT 10SM SCT026 SCT034 BKN049 01/M02 A2957 RMK AO2 RAE09 P0000 FZRANO
PASH 172353Z AUTO 36013KT 8SM UP SCT008 OVC017 01/M01 A2958 RMK AO2 UPE13B51RAB15E33SNB33E48 P0000 FZRANO
PASH 172344Z AUTO 01013KT 3SM -SN BR BKN008 OVC015 01/M01 A2958 RMK AO2 UPE13RAB15E33SNB33 CIG 005V011 P0000 FZRANO
PASH 172338Z AUTO 01015KT 1 3/4SM -SN BR BKN008 OVC015 01/M01 A2958 RMK AO2 VIS 1V5 UPE13RAB15E33SNB33 CIG 005V011 P0000 FZRANO
PASH 172332Z AUTO 01017KT 5SM -RA BR BKN008 OVC015 01/M01 A2958 RMK AO2 UPE13RAB15 CIG 005V011 P0000 FZRANO
PASH 172308Z AUTO 33015KT 8SM UP BKN013 OVC021 01/00 A2957 RMK AO2 P0000 FZRANO
PASH 172256Z AUTO 33014G18KT 4SM UP BR BKN016 BKN023 OVC034 01/M01 A2957 RMK AO2 RAB09E24UPB49 SLP016 P0000 T00061006 FZRANO
PASH 172156Z AUTO 31010KT 10SM FEW012 SCT022 OVC028 02/M01 A2958 RMK AO2 SLP017 T00171011 FZRANO
PASH 172147Z AUTO 31011KT 10SM BKN028 OVC034 01/M01 A2958 RMK AO2 FZRANO
PASH 172128Z AUTO 33010KT 10SM SCT026 BKN034 BKN060 02/M02 A2958 RMK AO2 FZRANO
PASH 172056Z AUTO 35010KT 10SM OVC026 02/M03 A2958 RMK AO2 SLP016 T00171028 51003 FZRANO
PASH 171956Z AUTO 36010KT 10SM BKN025 02/M03 A2958 RMK AO2 SLP016 T00171028 FZRANO